Time;durP1;ratioP1;P1;durP2;ratioP2;P2;SDS_P1;SDS_P2;PMS_P1;PMS_P2;Temp;Humidity;BMP_temperature;BMP_pressure;BME280_temperature;BME280_humidity;BME280_pressure;Samples;Min_cycle;Max_cycle;Signal;HPM_P1;HPM_P2
2021/07/13 00:00:26;;;;;;;;;;;;;;;;;;1033310;28;20419;-80
2021/07/13 00:00:56;;;;;;;;;;;;;;;;;;1033403;28;19910;-79
2021/07/13 00:01:27;;;;;;;;;;;;;;;;;;1033122;28;19906;-80
2021/07/13 00:01:57;;;;;;;;;;;;;;;;;;1033273;28;19910;-80
2021/07/13 00:02:27;;;;;;;;;;;;;;;;;;1029463;28;20376;-80
2021/07/13 00:02:57;;;;;;;;;;;;;;;;;;1029366;28;19906;-79
2021/07/13 00:03:28;;;;;;;;;;;;;;;;;;1033616;28;19906;-79
2021/07/13 00:03:58;;;;;;;;;;;;;;;;;;1033251;28;19910;-80
2021/07/13 00:04:28;;;;;;;;;;;;;;;;;;1029057;28;19918;-79
2021/07/13 00:04:59;;;;;;;;;;;;;;;;;;1025905;29;19917;-82
2021/07/13 00:05:29;;;;;;;;;;;;;;;;;;1025669;28;19960;-79
2021/07/13 00:05:59;;;;;;;;;;;;;;;;;;1029240;28;19917;-81
2021/07/13 00:06:30;;;;;;;;;;;;;;;;;;1031978;28;19956;-81
2021/07/13 00:07:00;;;;;;;;;;;;;;;;;;1037581;28;20339;-80
2021/07/13 00:07:30;;;;;;;;;;;;;;;;;;1033613;28;20117;-79
2021/07/13 00:08:00;;;;;;;;;;;;;;;;;;1033088;28;19910;-79
2021/07/13 00:08:31;;;;;;;;;;;;;;;;;;1037723;28;19902;-79
2021/07/13 00:09:02;;;;;;;;;;;;;;;;;;1037389;28;19909;-82
2021/07/13 00:09:32;;;;;;;;;;;;;;;;;;1037419;28;20004;-79
2021/07/13 00:10:02;;;;;;;;;;;;;;;;;;1032840;28;19910;-82
2021/07/13 00:10:33;;;;;;;;;;;;;;;;;;1033343;28;19924;-79
2021/07/13 00:11:03;;;;;;;;;;;;;;;;;;1025302;29;19997;-83
2021/07/13 00:11:33;;;;;;;;;;;;;;;;;;1025844;28;19913;-79
2021/07/13 00:12:03;;;;;;;;;;;;;;;;;;1021728;29;19962;-81
2021/07/13 00:12:34;;;;;;;;;;;;;;;;;;1025730;29;20001;-80
2021/07/13 00:13:04;;;;;;;;;;;;;;;;;;1029277;28;19910;-80
2021/07/13 00:13:34;;;;;;;;;;;;;;;;;;1028912;28;19917;-80
2021/07/13 00:14:04;;;;;;;;;;;;;;;;;;1033253;28;19968;-79
2021/07/13 00:14:35;;;;;;;;;;;;;;;;;;1033544;28;19909;-79
2021/07/13 00:15:06;;;;;;;;;;;;;;;;;;1033781;28;20001;-79
2021/07/13 00:15:36;;;;;;;;;;;;;;;;;;1030089;28;20364;-79
2021/07/13 00:16:06;;;;;;;;;;;;;;;;;;1025112;29;20042;-78
2021/07/13 00:16:37;;;;;;;;;;;;;;;;;;1029121;28;19942;-79
2021/07/13 00:17:07;;;;;;;;;;;;;;;;;;1025075;28;19949;-78
2021/07/13 00:17:37;;;;;;;;;;;;;;;;;;1021300;29;20305;-80
2021/07/13 00:18:07;;;;;;;;;;;;;;;;;;1025282;29;19907;-80
2021/07/13 00:18:38;;;;;;;;;;;;;;;;;;1028523;28;19906;-80
2021/07/13 00:19:08;;;;;;;;;;;;;;;;;;1034024;28;19992;-81
2021/07/13 00:19:38;;;;;;;;;;;;;;;;;;1033352;28;19913;-82
2021/07/13 00:20:09;;;;;;;;;;;;;;;;;;1037614;28;19966;-78
2021/07/13 00:20:39;;;;;;;;;;;;;;;;;;1038146;28;19948;-78
2021/07/13 00:21:09;;;;;;;;;;;;;;;;;;1037869;28;20343;-79
2021/07/13 00:21:40;;;;;;;;;;;;;;;;;;1037077;28;19988;-79
2021/07/13 00:22:10;;;;;;;;;;;;;;;;;;1029880;28;19907;-79
2021/07/13 00:22:40;;;;;;;;;;;;;;;;;;1032736;28;19906;-80
2021/07/13 00:23:11;;;;;;;;;;;;;;;;;;1028764;28;19910;-80
2021/07/13 00:23:41;;;;;;;;;;;;;;;;;;1029077;28;20455;-79
2021/07/13 00:24:11;;;;;;;;;;;;;;;;;;1029470;28;19974;-78
2021/07/13 00:24:41;;;;;;;;;;;;;;;;;;1033995;28;19945;-80
2021/07/13 00:25:49;;;;;;;;;;;;;;;;;;1022660;29;19930;-80
2021/07/13 00:26:19;;;;;;;;;;;;;;;;;;1026753;28;19910;-78
2021/07/13 00:27:23;;;;;;;;;;;;;;;;;;1035268;28;20374;-78
2021/07/13 00:27:53;;;;;;;;;;;;;;;;;;1033346;28;19910;-80
2021/07/13 00:28:24;;;;;;;;;;;;;;;;;;1042827;23;19909;-78
2021/07/13 00:28:54;;;;;;;;;;;;;;;;;;1031759;28;19965;-80
2021/07/13 00:29:24;;;;;;;;;;;;;;;;;;1029475;28;19977;-81
2021/07/13 00:29:55;;;;;;;;;;;;;;;;;;1036856;28;20362;-79
2021/07/13 00:30:25;;;;;;;;;;;;;;;;;;1033381;28;19902;-80
2021/07/13 00:30:55;;;;;;;;;;;;;;;;;;1037419;28;19933;-79
2021/07/13 00:31:25;;;;;;;;;;;;;;;;;;1037386;28;19909;-80
2021/07/13 00:31:56;;;;;;;;;;;;;;;;;;1029110;28;19990;-78
2021/07/13 00:32:26;;;;;;;;;;;;;;;;;;1037162;23;19958;-79
2021/07/13 00:32:56;;;;;;;;;;;;;;;;;;1024802;29;19992;-78
2021/07/13 00:33:26;;;;;;;;;;;;;;;;;;1029046;28;19902;-79
2021/07/13 00:33:58;;;;;;;;;;;;;;;;;;1033855;28;19941;-79
2021/07/13 00:34:28;;;;;;;;;;;;;;;;;;1029294;28;19927;-78
2021/07/13 00:34:58;;;;;;;;;;;;;;;;;;1028712;28;19919;-79
2021/07/13 00:35:29;;;;;;;;;;;;;;;;;;1028871;28;20000;-78
2021/07/13 00:36:31;;;;;;;;;;;;;;;;;;1034579;28;19930;-80
2021/07/13 00:37:02;;;;;;;;;;;;;;;;;;1036469;28;19910;-78
2021/07/13 00:37:32;;;;;;;;;;;;;;;;;;1028962;28;19918;-80
2021/07/13 00:38:02;;;;;;;;;;;;;;;;;;1028522;28;20401;-79
2021/07/13 00:38:32;;;;;;;;;;;;;;;;;;1031325;28;19957;-79
2021/07/13 00:39:03;;;;;;;;;;;;;;;;;;1032731;28;19949;-78
2021/07/13 00:39:33;;;;;;;;;;;;;;;;;;1036952;28;19909;-79
2021/07/13 00:40:03;;;;;;;;;;;;;;;;;;1036889;28;19909;-79
2021/07/13 00:40:33;;;;;;;;;;;;;;;;;;1033109;28;20049;-80
2021/07/13 00:41:04;;;;;;;;;;;;;;;;;;1020876;29;19910;-79
2021/07/13 00:41:34;;;;;;;;;;;;;;;;;;1024725;29;19985;-80
2021/07/13 00:42:04;;;;;;;;;;;;;;;;;;1025072;28;20389;-79
2021/07/13 00:42:35;;;;;;;;;;;;;;;;;;1027992;28;19917;-78
2021/07/13 00:43:05;;;;;;;;;;;;;;;;;;1033245;28;19906;-80
2021/07/13 00:43:35;;;;;;;;;;;;;;;;;;1028841;28;20456;-78
2021/07/13 00:44:06;;;;;;;;;;;;;;;;;;1024675;28;19914;-79
2021/07/13 00:44:36;;;;;;;;;;;;;;;;;;1028969;28;19910;-80
2021/07/13 00:45:06;;;;;;;;;;;;;;;;;;1028979;28;19910;-79
2021/07/13 00:45:36;;;;;;;;;;;;;;;;;;1032758;28;20366;-79
2021/07/13 00:46:07;;;;;;;;;;;;;;;;;;1033084;28;19973;-81
2021/07/13 00:46:37;;;;;;;;;;;;;;;;;;1028770;28;19921;-78
2021/07/13 00:47:07;;;;;;;;;;;;;;;;;;1033215;28;19913;-81
2021/07/13 00:47:37;;;;;;;;;;;;;;;;;;1033017;28;20407;-80
2021/07/13 00:48:09;;;;;;;;;;;;;;;;;;1033202;28;19972;-79
2021/07/13 00:48:39;;;;;;;;;;;;;;;;;;1033119;28;19953;-79
2021/07/13 00:49:10;;;;;;;;;;;;;;;;;;1033231;28;19909;-81
2021/07/13 00:49:44;;;;;;;;;;;;;;;;;;1037099;28;19949;-80
2021/07/13 00:50:15;;;;;;;;;;;;;;;;;;1037046;28;19910;-78
2021/07/13 00:50:45;;;;;;;;;;;;;;;;;;1036842;28;19910;-80
2021/07/13 00:51:15;;;;;;;;;;;;;;;;;;1037563;28;19910;-80
2021/07/13 00:51:45;;;;;;;;;;;;;;;;;;1033213;28;19977;-80
2021/07/13 00:52:16;;;;;;;;;;;;;;;;;;1037860;28;19913;-80
2021/07/13 00:52:46;;;;;;;;;;;;;;;;;;1030048;28;19949;-80
2021/07/13 00:53:16;;;;;;;;;;;;;;;;;;1030397;28;19910;-80
2021/07/13 00:53:46;;;;;;;;;;;;;;;;;;1025715;28;19997;-80
2021/07/13 00:54:17;;;;;;;;;;;;;;;;;;1029741;28;19911;-80
2021/07/13 00:54:47;;;;;;;;;;;;;;;;;;1037648;28;20421;-80
2021/07/13 00:55:17;;;;;;;;;;;;;;;;;;1033792;28;19910;-81
2021/07/13 00:55:47;;;;;;;;;;;;;;;;;;1033769;28;19916;-81
2021/07/13 00:56:18;;;;;;;;;;;;;;;;;;1034435;28;19914;-80
2021/07/13 00:56:48;;;;;;;;;;;;;;;;;;1046318;23;19909;-80
2021/07/13 00:57:18;;;;;;;;;;;;;;;;;;1036291;28;19917;-78
2021/07/13 00:57:49;;;;;;;;;;;;;;;;;;1034102;28;20348;-79
2021/07/13 00:58:19;;;;;;;;;;;;;;;;;;1029292;28;19912;-80
2021/07/13 00:58:49;;;;;;;;;;;;;;;;;;1029149;28;19945;-80
2021/07/13 00:59:19;;;;;;;;;;;;;;;;;;1037374;28;19921;-81
2021/07/13 00:59:50;;;;;;;;;;;;;;;;;;1038053;28;19913;-79
2021/07/13 01:00:21;;;;;;;;;;;;;;;;;;1038037;28;19997;-80
2021/07/13 01:01:26;;;;;;;;;;;;;;;;;;1035776;28;19956;-79
2021/07/13 01:01:56;;;;;;;;;;;;;;;;;;1034335;28;19909;-80
2021/07/13 01:02:26;;;;;;;;;;;;;;;;;;1033747;28;19956;-79
2021/07/13 01:02:57;;;;;;;;;;;;;;;;;;1037001;28;19906;-80
2021/07/13 01:03:27;;;;;;;;;;;;;;;;;;1037090;28;20353;-79
2021/07/13 01:03:57;;;;;;;;;;;;;;;;;;1036974;28;19936;-78
2021/07/13 01:04:27;;;;;;;;;;;;;;;;;;1041362;28;19905;-80
2021/07/13 01:04:58;;;;;;;;;;;;;;;;;;1049486;23;19928;-81
2021/07/13 01:05:29;;;;;;;;;;;;;;;;;;1036106;28;19913;-80
2021/07/13 01:05:59;;;;;;;;;;;;;;;;;;1032848;28;20458;-79
2021/07/13 01:06:29;;;;;;;;;;;;;;;;;;1033270;28;20455;-80
2021/07/13 01:07:00;;;;;;;;;;;;;;;;;;1036995;28;19905;-79
2021/07/13 01:07:30;;;;;;;;;;;;;;;;;;1037441;28;19902;-80
2021/07/13 01:08:00;;;;;;;;;;;;;;;;;;1037127;28;19905;-79
2021/07/13 01:08:30;;;;;;;;;;;;;;;;;;1035688;28;19902;-79
2021/07/13 01:09:01;;;;;;;;;;;;;;;;;;1033315;28;19906;-79
2021/07/13 01:10:03;;;;;;;;;;;;;;;;;;1028107;28;19941;-79
2021/07/13 01:10:35;;;;;;;;;;;;;;;;;;1029548;28;20016;-80
2021/07/13 01:11:07;;;;;;;;;;;;;;;;;;1029388;28;19913;-81
2021/07/13 01:11:37;;;;;;;;;;;;;;;;;;1029252;28;19902;-79
2021/07/13 01:12:07;;;;;;;;;;;;;;;;;;1029270;28;19906;-78
2021/07/13 01:12:37;;;;;;;;;;;;;;;;;;1032547;28;19910;-78
2021/07/13 01:13:08;;;;;;;;;;;;;;;;;;1033064;28;19961;-78
2021/07/13 01:13:38;;;;;;;;;;;;;;;;;;1032845;28;19985;-78
2021/07/13 01:14:08;;;;;;;;;;;;;;;;;;1032863;28;19913;-79
2021/07/13 01:14:38;;;;;;;;;;;;;;;;;;1024749;29;19907;-79
2021/07/13 01:15:09;;;;;;;;;;;;;;;;;;1029382;28;19981;-79
2021/07/13 01:15:39;;;;;;;;;;;;;;;;;;1024763;29;19939;-78
2021/07/13 01:16:09;;;;;;;;;;;;;;;;;;1024757;29;19906;-79
2021/07/13 01:16:40;;;;;;;;;;;;;;;;;;1027432;28;19979;-79
2021/07/13 01:17:10;;;;;;;;;;;;;;;;;;1025126;28;20299;-80
2021/07/13 01:17:40;;;;;;;;;;;;;;;;;;1025246;29;19911;-79
2021/07/13 01:18:10;;;;;;;;;;;;;;;;;;1020598;29;20002;-79
2021/07/13 01:18:41;;;;;;;;;;;;;;;;;;1024754;29;19914;-79
2021/07/13 01:19:11;;;;;;;;;;;;;;;;;;1021039;29;19911;-80
2021/07/13 01:19:41;;;;;;;;;;;;;;;;;;1025181;29;20396;-79
2021/07/13 01:20:11;;;;;;;;;;;;;;;;;;1025188;28;19929;-80
2021/07/13 01:20:42;;;;;;;;;;;;;;;;;;1029005;28;19961;-78
2021/07/13 01:21:12;;;;;;;;;;;;;;;;;;1029926;28;20012;-79
2021/07/13 01:21:42;;;;;;;;;;;;;;;;;;1029693;28;19914;-80
2021/07/13 01:22:13;;;;;;;;;;;;;;;;;;1025522;29;20344;-80
2021/07/13 01:22:43;;;;;;;;;;;;;;;;;;1021205;29;19950;-80
2021/07/13 01:23:14;;;;;;;;;;;;;;;;;;1017208;29;20432;-80
2021/07/13 01:23:44;;;;;;;;;;;;;;;;;;1021262;29;19911;-80
2021/07/13 01:24:14;;;;;;;;;;;;;;;;;;1017285;29;19911;-79
2021/07/13 01:24:44;;;;;;;;;;;;;;;;;;1017692;29;19959;-80
2021/07/13 01:25:15;;;;;;;;;;;;;;;;;;1017577;29;19911;-79
2021/07/13 01:25:45;;;;;;;;;;;;;;;;;;1021652;29;20287;-79
2021/07/13 01:26:15;;;;;;;;;;;;;;;;;;1025520;29;19910;-81
2021/07/13 01:26:47;;;;;;;;;;;;;;;;;;1025501;29;20086;-80
2021/07/13 01:27:17;;;;;;;;;;;;;;;;;;1030311;28;19961;-80
2021/07/13 01:27:48;;;;;;;;;;;;;;;;;;1032255;28;20045;-79
2021/07/13 01:28:18;;;;;;;;;;;;;;;;;;1032413;28;19906;-80
2021/07/13 01:28:49;;;;;;;;;;;;;;;;;;1032697;28;19910;-80
2021/07/13 01:29:19;;;;;;;;;;;;;;;;;;1032709;28;19898;-80
2021/07/13 01:29:50;;;;;;;;;;;;;;;;;;1030924;28;19910;-80
2021/07/13 01:30:20;;;;;;;;;;;;;;;;;;1025586;28;19911;-81
2021/07/13 01:30:50;;;;;;;;;;;;;;;;;;1029388;28;20339;-80
2021/07/13 01:31:21;;;;;;;;;;;;;;;;;;1029065;28;19934;-81
2021/07/13 01:31:51;;;;;;;;;;;;;;;;;;1029131;28;19906;-81
2021/07/13 01:32:21;;;;;;;;;;;;;;;;;;1033248;28;19922;-81
2021/07/13 01:32:52;;;;;;;;;;;;;;;;;;1033141;28;19906;-80
2021/07/13 01:33:22;;;;;;;;;;;;;;;;;;1029050;28;19917;-80
2021/07/13 01:33:52;;;;;;;;;;;;;;;;;;1028993;28;19917;-80
2021/07/13 01:34:22;;;;;;;;;;;;;;;;;;1025332;29;19919;-80
2021/07/13 01:34:54;;;;;;;;;;;;;;;;;;1024754;29;19918;-79
2021/07/13 01:35:24;;;;;;;;;;;;;;;;;;1024756;28;19985;-79
2021/07/13 01:35:54;;;;;;;;;;;;;;;;;;1028966;28;20426;-78
2021/07/13 01:36:25;;;;;;;;;;;;;;;;;;1032974;28;19917;-79
2021/07/13 01:36:55;;;;;;;;;;;;;;;;;;1032711;28;20363;-80
2021/07/13 01:37:25;;;;;;;;;;;;;;;;;;1028731;28;19933;-79
2021/07/13 01:37:55;;;;;;;;;;;;;;;;;;1024836;29;19907;-79
2021/07/13 01:38:25;;;;;;;;;;;;;;;;;;1024835;29;19934;-80
2021/07/13 01:38:56;;;;;;;;;;;;;;;;;;1020975;29;20384;-78
2021/07/13 01:39:26;;;;;;;;;;;;;;;;;;1020821;29;19911;-79
2021/07/13 01:39:56;;;;;;;;;;;;;;;;;;1021199;29;19907;-79
2021/07/13 01:40:26;;;;;;;;;;;;;;;;;;1025364;29;19903;-79
2021/07/13 01:40:57;;;;;;;;;;;;;;;;;;1025177;29;19930;-80
2021/07/13 01:41:27;;;;;;;;;;;;;;;;;;1025095;29;19907;-79
2021/07/13 01:41:57;;;;;;;;;;;;;;;;;;1024723;28;19911;-79
2021/07/13 01:42:28;;;;;;;;;;;;;;;;;;1024825;29;19906;-81
2021/07/13 01:42:58;;;;;;;;;;;;;;;;;;1033068;28;19906;-79
2021/07/13 01:43:29;;;;;;;;;;;;;;;;;;1028868;28;19906;-79
2021/07/13 01:43:59;;;;;;;;;;;;;;;;;;1025009;28;19914;-79
2021/07/13 01:44:29;;;;;;;;;;;;;;;;;;1024865;29;19906;-79
2021/07/13 01:45:00;;;;;;;;;;;;;;;;;;1021458;29;20024;-80
2021/07/13 01:45:30;;;;;;;;;;;;;;;;;;1025097;28;20009;-79
2021/07/13 01:46:00;;;;;;;;;;;;;;;;;;1029025;28;20416;-80
2021/07/13 01:46:30;;;;;;;;;;;;;;;;;;1024879;29;19964;-79
2021/07/13 01:47:01;;;;;;;;;;;;;;;;;;1029001;28;19907;-79
2021/07/13 01:47:31;;;;;;;;;;;;;;;;;;1032992;28;20283;-78
2021/07/13 01:48:02;;;;;;;;;;;;;;;;;;1032645;28;19906;-78
2021/07/13 01:48:32;;;;;;;;;;;;;;;;;;1032644;28;19925;-79
2021/07/13 01:49:03;;;;;;;;;;;;;;;;;;1032866;28;19913;-78
2021/07/13 01:49:33;;;;;;;;;;;;;;;;;;1032696;28;20414;-79
2021/07/13 01:50:03;;;;;;;;;;;;;;;;;;1032703;28;20276;-78
2021/07/13 01:50:34;;;;;;;;;;;;;;;;;;1032990;28;19916;-79
2021/07/13 01:51:04;;;;;;;;;;;;;;;;;;1029176;28;19902;-79
2021/07/13 01:51:34;;;;;;;;;;;;;;;;;;1024555;29;20383;-78
2021/07/13 01:52:04;;;;;;;;;;;;;;;;;;1020845;29;19903;-80
2021/07/13 01:52:35;;;;;;;;;;;;;;;;;;1023715;29;19907;-78
2021/07/13 01:53:05;;;;;;;;;;;;;;;;;;1024701;29;20065;-79
2021/07/13 01:53:35;;;;;;;;;;;;;;;;;;1025001;28;19922;-79
2021/07/13 01:54:06;;;;;;;;;;;;;;;;;;1032897;28;20352;-79
2021/07/13 01:54:36;;;;;;;;;;;;;;;;;;1029863;28;19912;-78
2021/07/13 01:55:06;;;;;;;;;;;;;;;;;;1028981;28;19906;-79
2021/07/13 01:55:38;;;;;;;;;;;;;;;;;;1031099;28;19906;-79
2021/07/13 01:56:08;;;;;;;;;;;;;;;;;;1029382;28;19996;-80
2021/07/13 01:56:38;;;;;;;;;;;;;;;;;;1020973;29;19917;-79
2021/07/13 01:57:09;;;;;;;;;;;;;;;;;;1016957;29;20393;-80
2021/07/13 01:57:39;;;;;;;;;;;;;;;;;;1017192;29;19915;-80
2021/07/13 01:58:09;;;;;;;;;;;;;;;;;;1020997;29;19918;-79
2021/07/13 01:58:39;;;;;;;;;;;;;;;;;;1029529;28;20030;-78
2021/07/13 01:59:11;;;;;;;;;;;;;;;;;;1021295;29;19968;-78
2021/07/13 01:59:41;;;;;;;;;;;;;;;;;;1021575;29;20034;-81
2021/07/13 02:00:12;;;;;;;;;;;;;;;;;;1024544;29;19916;-78
2021/07/13 02:00:42;;;;;;;;;;;;;;;;;;1025188;28;20021;-79
2021/07/13 02:01:12;;;;;;;;;;;;;;;;;;1024751;29;19911;-79
2021/07/13 02:01:42;;;;;;;;;;;;;;;;;;1024855;29;19918;-79
2021/07/13 02:02:13;;;;;;;;;;;;;;;;;;1024891;29;19950;-79
2021/07/13 02:02:44;;;;;;;;;;;;;;;;;;1024945;29;19978;-78
2021/07/13 02:03:14;;;;;;;;;;;;;;;;;;1025624;28;19914;-79
2021/07/13 02:03:44;;;;;;;;;;;;;;;;;;1030019;28;19910;-79
2021/07/13 02:04:14;;;;;;;;;;;;;;;;;;1022517;29;19907;-80
2021/07/13 02:04:45;;;;;;;;;;;;;;;;;;1018509;29;19994;-80
2021/07/13 02:05:15;;;;;;;;;;;;;;;;;;1022409;29;19911;-80
2021/07/13 02:05:45;;;;;;;;;;;;;;;;;;1018202;29;19912;-80
2021/07/13 02:06:16;;;;;;;;;;;;;;;;;;1013662;29;19912;-79
2021/07/13 02:06:46;;;;;;;;;;;;;;;;;;1021441;29;19952;-81
2021/07/13 02:07:16;;;;;;;;;;;;;;;;;;1021765;29;20308;-79
2021/07/13 02:07:49;;;;;;;;;;;;;;;;;;1029832;28;19910;-79
2021/07/13 02:08:19;;;;;;;;;;;;;;;;;;1025259;28;20285;-78
2021/07/13 02:08:50;;;;;;;;;;;;;;;;;;1029426;28;19961;-78
2021/07/13 02:09:20;;;;;;;;;;;;;;;;;;1028852;28;19906;-78
2021/07/13 02:09:50;;;;;;;;;;;;;;;;;;1020953;29;19918;-80
2021/07/13 02:10:21;;;;;;;;;;;;;;;;;;1025517;28;19933;-78
2021/07/13 02:10:51;;;;;;;;;;;;;;;;;;1025161;29;20383;-80
2021/07/13 02:11:21;;;;;;;;;;;;;;;;;;1026017;28;19981;-79
2021/07/13 02:11:51;;;;;;;;;;;;;;;;;;1030007;28;19910;-79
2021/07/13 02:12:22;;;;;;;;;;;;;;;;;;1030202;28;19974;-79
2021/07/13 02:12:52;;;;;;;;;;;;;;;;;;1025845;29;20455;-79
2021/07/13 02:13:22;;;;;;;;;;;;;;;;;;1030580;28;20241;-78
2021/07/13 02:13:52;;;;;;;;;;;;;;;;;;1026194;29;19914;-80
2021/07/13 02:14:23;;;;;;;;;;;;;;;;;;1025204;28;19921;-79
2021/07/13 02:14:53;;;;;;;;;;;;;;;;;;1021166;29;19986;-79
2021/07/13 02:15:23;;;;;;;;;;;;;;;;;;1021653;29;19907;-79
2021/07/13 02:15:53;;;;;;;;;;;;;;;;;;1021425;29;20284;-78
2021/07/13 02:16:24;;;;;;;;;;;;;;;;;;1025304;29;19911;-79
2021/07/13 02:16:54;;;;;;;;;;;;;;;;;;1033235;28;19918;-79
2021/07/13 02:17:24;;;;;;;;;;;;;;;;;;1033097;28;20037;-79
2021/07/13 02:17:55;;;;;;;;;;;;;;;;;;1033062;28;19913;-78
2021/07/13 02:18:25;;;;;;;;;;;;;;;;;;1028815;28;19903;-78
2021/07/13 02:18:55;;;;;;;;;;;;;;;;;;1028957;28;19907;-79
2021/07/13 02:19:26;;;;;;;;;;;;;;;;;;1021196;29;19906;-80
2021/07/13 02:19:56;;;;;;;;;;;;;;;;;;1021187;29;19911;-79
2021/07/13 02:20:27;;;;;;;;;;;;;;;;;;1021155;29;19907;-80
2021/07/13 02:20:58;;;;;;;;;;;;;;;;;;1021579;28;20304;-79
2021/07/13 02:21:28;;;;;;;;;;;;;;;;;;1025277;28;19918;-78
2021/07/13 02:21:58;;;;;;;;;;;;;;;;;;1025453;29;19910;-78
2021/07/13 02:22:28;;;;;;;;;;;;;;;;;;1021511;29;19983;-79
2021/07/13 02:22:59;;;;;;;;;;;;;;;;;;1021374;29;20280;-80
2021/07/13 02:23:29;;;;;;;;;;;;;;;;;;1021147;29;20002;-79
2021/07/13 02:23:59;;;;;;;;;;;;;;;;;;1025227;28;19958;-79
2021/07/13 02:24:30;;;;;;;;;;;;;;;;;;1025096;28;19909;-78
2021/07/13 02:25:00;;;;;;;;;;;;;;;;;;1021409;29;19922;-78
2021/07/13 02:25:30;;;;;;;;;;;;;;;;;;1025233;29;19933;-78
2021/07/13 02:26:00;;;;;;;;;;;;;;;;;;1025406;28;19906;-78
2021/07/13 02:26:31;;;;;;;;;;;;;;;;;;1021409;29;19993;-79
2021/07/13 02:27:01;;;;;;;;;;;;;;;;;;1017376;29;19908;-79
2021/07/13 02:27:31;;;;;;;;;;;;;;;;;;1017169;29;19909;-78
2021/07/13 02:28:01;;;;;;;;;;;;;;;;;;1021390;29;19907;-78
2021/07/13 02:28:32;;;;;;;;;;;;;;;;;;1021341;29;19910;-78
2021/07/13 02:29:02;;;;;;;;;;;;;;;;;;1026534;29;19977;-78
2021/07/13 02:29:32;;;;;;;;;;;;;;;;;;1024896;29;19938;-80
2021/07/13 02:30:02;;;;;;;;;;;;;;;;;;1029043;28;19917;-78
2021/07/13 02:30:33;;;;;;;;;;;;;;;;;;1027584;28;19918;-80
2021/07/13 02:31:03;;;;;;;;;;;;;;;;;;1025043;29;19907;-78
2021/07/13 02:31:33;;;;;;;;;;;;;;;;;;1024458;29;19945;-79
2021/07/13 02:32:03;;;;;;;;;;;;;;;;;;1024515;29;19945;-78
2021/07/13 02:32:34;;;;;;;;;;;;;;;;;;1024855;29;19902;-79
2021/07/13 02:33:04;;;;;;;;;;;;;;;;;;1033347;28;19910;-78
2021/07/13 02:33:34;;;;;;;;;;;;;;;;;;1029061;28;19909;-81
2021/07/13 02:34:04;;;;;;;;;;;;;;;;;;1033882;28;19929;-78
2021/07/13 02:34:35;;;;;;;;;;;;;;;;;;1033258;28;19985;-78
2021/07/13 02:35:05;;;;;;;;;;;;;;;;;;1025034;29;19907;-79
2021/07/13 02:35:35;;;;;;;;;;;;;;;;;;1028973;28;19929;-79
2021/07/13 02:36:05;;;;;;;;;;;;;;;;;;1025716;28;20029;-78
2021/07/13 02:36:36;;;;;;;;;;;;;;;;;;1022269;29;19918;-80
2021/07/13 02:37:06;;;;;;;;;;;;;;;;;;1030354;28;20344;-81
2021/07/13 02:37:36;;;;;;;;;;;;;;;;;;1025892;28;19910;-80
2021/07/13 02:38:06;;;;;;;;;;;;;;;;;;1022057;29;19973;-80
2021/07/13 02:38:37;;;;;;;;;;;;;;;;;;1021694;29;20325;-78
2021/07/13 02:39:07;;;;;;;;;;;;;;;;;;1021029;29;20042;-78
2021/07/13 02:39:38;;;;;;;;;;;;;;;;;;1026118;28;19906;-80
2021/07/13 02:40:08;;;;;;;;;;;;;;;;;;1031736;28;19907;-80
2021/07/13 02:40:39;;;;;;;;;;;;;;;;;;1032832;28;19917;-81
2021/07/13 02:41:09;;;;;;;;;;;;;;;;;;1029230;29;19978;-80
2021/07/13 02:41:40;;;;;;;;;;;;;;;;;;1029257;28;19894;-79
2021/07/13 02:42:10;;;;;;;;;;;;;;;;;;1029229;28;19962;-79
2021/07/13 02:42:40;;;;;;;;;;;;;;;;;;1025297;29;19907;-80
2021/07/13 02:43:10;;;;;;;;;;;;;;;;;;1025508;29;19915;-80
2021/07/13 02:43:41;;;;;;;;;;;;;;;;;;1029405;28;19937;-79
2021/07/13 02:44:11;;;;;;;;;;;;;;;;;;1029322;29;19902;-80
2021/07/13 02:44:41;;;;;;;;;;;;;;;;;;1029477;28;19926;-81
2021/07/13 02:45:11;;;;;;;;;;;;;;;;;;1025492;29;19911;-81
2021/07/13 02:45:42;;;;;;;;;;;;;;;;;;1029366;28;19917;-81
2021/07/13 02:46:12;;;;;;;;;;;;;;;;;;1025319;29;19922;-81
2021/07/13 02:46:44;;;;;;;;;;;;;;;;;;1029420;29;19919;-81
2021/07/13 02:47:14;;;;;;;;;;;;;;;;;;1029358;28;19934;-78
2021/07/13 02:47:44;;;;;;;;;;;;;;;;;;1029211;29;19910;-79
2021/07/13 02:48:15;;;;;;;;;;;;;;;;;;1025195;29;19909;-77
2021/07/13 02:48:45;;;;;;;;;;;;;;;;;;1029310;28;19910;-80
2021/07/13 02:49:15;;;;;;;;;;;;;;;;;;1029108;29;19918;-79
2021/07/13 02:49:47;;;;;;;;;;;;;;;;;;1025228;29;19910;-77
2021/07/13 02:50:17;;;;;;;;;;;;;;;;;;1025292;29;19915;-77
2021/07/13 02:50:47;;;;;;;;;;;;;;;;;;1029601;28;19911;-79
2021/07/13 02:51:18;;;;;;;;;;;;;;;;;;1025578;29;19947;-79
2021/07/13 02:51:48;;;;;;;;;;;;;;;;;;1029470;29;19918;-77
2021/07/13 02:52:18;;;;;;;;;;;;;;;;;;1028902;29;19898;-77
2021/07/13 02:52:48;;;;;;;;;;;;;;;;;;1025486;28;19910;-79
2021/07/13 02:53:19;;;;;;;;;;;;;;;;;;1033298;28;19949;-79
2021/07/13 02:53:49;;;;;;;;;;;;;;;;;;1029392;28;19978;-79
2021/07/13 02:54:19;;;;;;;;;;;;;;;;;;1029270;28;19907;-80
2021/07/13 02:54:50;;;;;;;;;;;;;;;;;;1029615;28;19914;-79
2021/07/13 02:55:20;;;;;;;;;;;;;;;;;;1029430;29;19942;-80
2021/07/13 02:55:50;;;;;;;;;;;;;;;;;;1025368;29;19933;-79
2021/07/13 02:56:20;;;;;;;;;;;;;;;;;;1028688;28;19910;-79
2021/07/13 02:56:51;;;;;;;;;;;;;;;;;;1028880;28;19914;-79
2021/07/13 02:57:21;;;;;;;;;;;;;;;;;;1021178;29;19922;-80
2021/07/13 02:57:51;;;;;;;;;;;;;;;;;;1025344;29;19909;-80
2021/07/13 02:58:21;;;;;;;;;;;;;;;;;;1026173;29;20025;-81
2021/07/13 02:58:52;;;;;;;;;;;;;;;;;;1025198;29;19907;-80
2021/07/13 02:59:22;;;;;;;;;;;;;;;;;;1021520;29;19967;-80
2021/07/13 02:59:53;;;;;;;;;;;;;;;;;;1029474;29;19930;-79
2021/07/13 03:00:23;;;;;;;;;;;;;;;;;;1025603;28;19979;-79
2021/07/13 03:00:53;;;;;;;;;;;;;;;;;;1029213;29;19907;-79
2021/07/13 03:01:23;;;;;;;;;;;;;;;;;;1029208;28;19903;-80
2021/07/13 03:01:54;;;;;;;;;;;;;;;;;;1029364;28;19969;-80
2021/07/13 03:02:24;;;;;;;;;;;;;;;;;;1031667;28;19917;-79
2021/07/13 03:02:54;;;;;;;;;;;;;;;;;;1029226;28;20399;-80
2021/07/13 03:03:24;;;;;;;;;;;;;;;;;;1033256;28;19973;-80
2021/07/13 03:03:55;;;;;;;;;;;;;;;;;;1037228;28;19906;-80
2021/07/13 03:04:25;;;;;;;;;;;;;;;;;;1037899;28;19909;-79
2021/07/13 03:04:57;;;;;;;;;;;;;;;;;;1033750;28;20046;-78
2021/07/13 03:05:27;;;;;;;;;;;;;;;;;;1038245;28;19934;-79
2021/07/13 03:05:57;;;;;;;;;;;;;;;;;;1033924;28;19944;-80
2021/07/13 03:06:27;;;;;;;;;;;;;;;;;;1029914;29;20005;-79
2021/07/13 03:06:58;;;;;;;;;;;;;;;;;;1029906;29;19991;-79
2021/07/13 03:07:28;;;;;;;;;;;;;;;;;;1030186;28;19957;-79
2021/07/13 03:07:58;;;;;;;;;;;;;;;;;;1029995;28;19907;-77
2021/07/13 03:08:29;;;;;;;;;;;;;;;;;;1030091;29;19894;-79
2021/07/13 03:08:59;;;;;;;;;;;;;;;;;;1029992;29;19969;-78
2021/07/13 03:09:29;;;;;;;;;;;;;;;;;;1026312;28;19954;-78
2021/07/13 03:10:00;;;;;;;;;;;;;;;;;;1034312;28;19917;-79
2021/07/13 03:10:31;;;;;;;;;;;;;;;;;;1033856;28;19916;-78
2021/07/13 03:11:02;;;;;;;;;;;;;;;;;;1030093;28;19934;-80
2021/07/13 03:11:32;;;;;;;;;;;;;;;;;;1033826;28;19941;-79
2021/07/13 03:12:02;;;;;;;;;;;;;;;;;;1034229;28;19906;-79
2021/07/13 03:12:32;;;;;;;;;;;;;;;;;;1034123;28;19907;-79
2021/07/13 03:13:03;;;;;;;;;;;;;;;;;;1037441;28;19906;-79
2021/07/13 03:13:33;;;;;;;;;;;;;;;;;;1038348;28;19933;-79
2021/07/13 03:14:03;;;;;;;;;;;;;;;;;;1034129;28;19903;-79
2021/07/13 03:14:34;;;;;;;;;;;;;;;;;;1033882;28;19914;-81
2021/07/13 03:15:04;;;;;;;;;;;;;;;;;;1033664;28;19953;-81
2021/07/13 03:15:34;;;;;;;;;;;;;;;;;;1034014;28;19910;-80
2021/07/13 03:16:04;;;;;;;;;;;;;;;;;;1034090;28;19903;-79
2021/07/13 03:16:35;;;;;;;;;;;;;;;;;;1033176;28;19906;-79
2021/07/13 03:17:05;;;;;;;;;;;;;;;;;;1028766;29;19930;-79
2021/07/13 03:17:35;;;;;;;;;;;;;;;;;;1029294;29;19969;-79
2021/07/13 03:18:06;;;;;;;;;;;;;;;;;;1029327;29;19914;-79
2021/07/13 03:18:36;;;;;;;;;;;;;;;;;;1024836;29;19966;-78
2021/07/13 03:19:06;;;;;;;;;;;;;;;;;;1029314;29;19911;-80
2021/07/13 03:19:36;;;;;;;;;;;;;;;;;;1029641;28;19905;-79
2021/07/13 03:20:07;;;;;;;;;;;;;;;;;;1029621;29;19954;-79
2021/07/13 03:20:37;;;;;;;;;;;;;;;;;;1025376;29;19911;-79
2021/07/13 03:21:07;;;;;;;;;;;;;;;;;;1021211;29;19947;-79
2021/07/13 03:21:38;;;;;;;;;;;;;;;;;;1021575;29;19919;-79
2021/07/13 03:22:08;;;;;;;;;;;;;;;;;;1029920;28;19911;-79
2021/07/13 03:22:38;;;;;;;;;;;;;;;;;;1034051;28;19898;-78
2021/07/13 03:23:08;;;;;;;;;;;;;;;;;;1034068;28;19959;-77
2021/07/13 03:23:38;;;;;;;;;;;;;;;;;;1030050;29;19894;-81
2021/07/13 03:24:09;;;;;;;;;;;;;;;;;;1030117;29;19910;-80
2021/07/13 03:24:40;;;;;;;;;;;;;;;;;;1038223;28;19893;-80
2021/07/13 03:25:10;;;;;;;;;;;;;;;;;;1034314;28;19910;-77
2021/07/13 03:25:41;;;;;;;;;;;;;;;;;;1029922;28;19921;-78
2021/07/13 03:26:11;;;;;;;;;;;;;;;;;;1026153;28;19910;-79
2021/07/13 03:26:41;;;;;;;;;;;;;;;;;;1018276;29;19963;-78
2021/07/13 03:27:12;;;;;;;;;;;;;;;;;;1022290;29;19911;-77
2021/07/13 03:27:42;;;;;;;;;;;;;;;;;;1026064;29;19949;-79
2021/07/13 03:28:12;;;;;;;;;;;;;;;;;;1025980;28;19930;-78
2021/07/13 03:28:43;;;;;;;;;;;;;;;;;;1030029;29;19914;-79
2021/07/13 03:29:13;;;;;;;;;;;;;;;;;;1029813;29;19909;-78
2021/07/13 03:29:43;;;;;;;;;;;;;;;;;;1025644;29;19919;-78
2021/07/13 03:30:13;;;;;;;;;;;;;;;;;;1029351;29;19914;-79